Time;durP1;ratioP1;P1;durP2;ratioP2;P2;SDS_P1;SDS_P2;PMS_P1;PMS_P2;Temp;Humidity;BMP_temperature;BMP_pressure;BME280_temperature;BME280_humidity;BME280_pressure;Samples;Min_cycle;Max_cycle;Signal;HPM_P1;HPM_P2
2022/06/05 00:01:10;;;;;;;14.30;10.40;;;22.20;73.00;;;;;;5002875;28;20213;-93
2022/06/05 00:03:49;;;;;;;18.20;11.33;;;22.20;74.70;;;;;;4999495;28;20675;-93
2022/06/05 00:06:26;;;;;;;20.00;11.83;;;22.20;74.70;;;;;;5001484;28;20241;-91
2022/06/05 00:09:19;;;;;;;18.53;12.10;;;22.20;74.30;;;;;;5002731;28;20263;-93
2022/06/05 00:11:54;;;;;;;18.90;11.70;;;22.20;75.70;;;;;;5005189;28;20289;-93
2022/06/05 00:14:22;;;;;;;23.87;13.43;;;22.10;74.80;;;;;;5008391;28;20224;-92
2022/06/05 00:16:49;;;;;;;13.50;10.70;;;22.10;73.90;;;;;;5016622;28;20464;-93
2022/06/05 00:19:17;;;;;;;15.13;11.27;;;22.10;74.00;;;;;;5018340;28;20201;-93
2022/06/05 00:21:45;;;;;;;13.90;12.23;;;22.00;74.30;;;;;;5015145;28;20209;-94
2022/06/05 00:24:15;;;;;;;13.90;10.90;;;22.10;75.20;;;;;;5006183;28;20206;-93
2022/06/05 00:26:56;;;;;;;18.80;12.90;;;22.00;75.50;;;;;;5002335;28;20208;-92
2022/06/05 00:29:43;;;;;;;18.00;13.53;;;22.00;77.00;;;;;;5008017;28;20232;-91
2022/06/05 00:32:18;;;;;;;17.27;12.63;;;21.90;76.70;;;;;;4995819;28;20204;-92
2022/06/05 00:34:51;;;;;;;19.77;13.40;;;21.90;76.30;;;;;;5001750;28;20593;-92
2022/06/05 00:37:31;;;;;;;20.07;13.33;;;21.90;76.90;;;;;;5002597;28;20264;-94
2022/06/05 00:40:25;;;;;;;19.77;13.03;;;21.90;77.40;;;;;;5000447;28;20208;-92
2022/06/05 00:42:53;;;;;;;19.47;13.00;;;21.90;77.50;;;;;;5008302;28;20228;-93
2022/06/05 00:45:22;;;;;;;14.90;11.70;;;21.80;75.90;;;;;;5007593;28;20206;-93
2022/06/05 00:47:55;;;;;;;13.83;11.37;;;21.80;76.40;;;;;;5008376;28;20202;-93
2022/06/05 00:50:28;;;;;;;19.13;12.60;;;21.80;78.10;;;;;;5007935;28;20293;-92
2022/06/05 00:52:57;;;;;;;16.87;12.47;;;21.80;77.60;;;;;;5007566;28;20210;-91
2022/06/05 00:55:29;;;;;;;17.90;12.50;;;21.70;77.10;;;;;;4999708;28;20212;-93
2022/06/05 00:57:58;;;;;;;17.83;12.87;;;21.70;77.60;;;;;;5010439;28;20239;-93
2022/06/05 01:00:29;;;;;;;24.83;13.37;;;21.70;77.10;;;;;;5010240;28;20253;-91
2022/06/05 01:03:03;;;;;;;16.07;11.47;;;21.70;77.40;;;;;;5000718;28;20205;-91
2022/06/05 01:05:30;;;;;;;15.47;10.97;;;21.70;77.50;;;;;;5012719;28;20291;-95
2022/06/05 01:08:02;;;;;;;14.57;9.93;;;21.70;77.30;;;;;;5010549;28;20194;-93
2022/06/05 01:10:44;;;;;;;15.33;10.60;;;21.70;77.60;;;;;;5009547;28;20296;-92
2022/06/05 01:13:21;;;;;;;18.77;11.07;;;21.70;78.30;;;;;;5002605;28;20201;-92
2022/06/05 01:15:56;;;;;;;14.97;10.57;;;21.70;77.70;;;;;;5002655;28;20662;-94
2022/06/05 01:18:31;;;;;;;16.00;10.00;;;21.60;77.80;;;;;;5005546;28;20201;-94
2022/06/05 01:21:11;;;;;;;21.13;12.23;;;21.60;77.60;;;;;;5001588;28;20229;-92
2022/06/05 01:23:50;;;;;;;12.93;9.20;;;21.60;77.80;;;;;;5000857;28;20216;-94
2022/06/05 01:26:34;;;;;;;18.97;10.60;;;21.60;77.80;;;;;;4999835;28;20204;-92
2022/06/05 01:29:06;;;;;;;15.53;9.30;;;21.60;78.30;;;;;;5001356;28;20217;-94
2022/06/05 01:31:40;;;;;;;16.57;10.10;;;21.50;77.10;;;;;;5000494;28;20205;-93
2022/06/05 01:34:17;;;;;;;11.87;8.63;;;21.50;77.60;;;;;;5002843;28;20221;-93
2022/06/05 01:36:50;;;;;;;14.47;8.90;;;21.50;78.40;;;;;;5002071;28;20197;-93
2022/06/05 01:39:23;;;;;;;22.50;11.90;;;21.50;77.80;;;;;;5007609;28;20268;-94
2022/06/05 01:41:55;;;;;;;20.07;11.33;;;21.50;78.30;;;;;;5019867;28;21682;-93
2022/06/05 01:44:31;;;;;;;23.90;12.03;;;21.50;78.20;;;;;;5013954;28;20279;-93
2022/06/05 01:47:05;;;;;;;20.40;11.63;;;21.50;78.00;;;;;;5004730;28;20251;-93
2022/06/05 01:49:38;;;;;;;18.27;11.33;;;21.40;77.50;;;;;;5021542;28;20368;-92
2022/06/05 01:52:18;;;;;;;17.30;10.93;;;21.50;77.80;;;;;;5018747;28;20213;-92
2022/06/05 01:54:55;;;;;;;20.70;11.17;;;21.40;78.40;;;;;;5008651;28;20212;-92
2022/06/05 01:57:26;;;;;;;11.97;9.40;;;21.40;77.70;;;;;;5012318;28;20232;-92
2022/06/05 01:59:58;;;;;;;14.97;10.10;;;21.40;77.50;;;;;;5011800;28;20217;-92
2022/06/05 02:02:38;;;;;;;14.93;9.67;;;21.40;77.70;;;;;;5006985;28;20201;-92
2022/06/05 02:05:11;;;;;;;15.73;10.13;;;21.30;78.10;;;;;;5003011;28;20211;-91
2022/06/05 02:07:45;;;;;;;15.23;9.17;;;21.30;77.20;;;;;;4996359;28;20209;-92
2022/06/05 02:10:20;;;;;;;14.50;9.87;;;21.20;77.80;;;;;;5011129;28;20619;-93
2022/06/05 02:12:49;;;;;;;12.07;9.17;;;21.20;78.30;;;;;;5010316;28;20221;-91
2022/06/05 02:15:18;;;;;;;17.03;10.80;;;21.20;78.00;;;;;;5010873;28;20217;-93
2022/06/05 02:17:50;;;;;;;16.57;9.40;;;21.20;78.10;;;;;;5009968;28;20244;-93
2022/06/05 02:20:19;;;;;;;20.63;10.73;;;21.20;78.30;;;;;;5012425;28;21043;-94
2022/06/05 02:22:51;;;;;;;12.50;8.97;;;21.10;78.10;;;;;;5012820;28;20281;-94
2022/06/05 02:25:20;;;;;;;22.67;11.93;;;21.10;78.20;;;;;;5012365;28;20288;-92
2022/06/05 02:27:50;;;;;;;12.77;8.90;;;21.00;77.80;;;;;;5014254;28;20624;-94
2022/06/05 02:30:18;;;;;;;20.83;11.30;;;20.90;78.00;;;;;;5011240;28;20233;-93
2022/06/05 02:33:03;;;;;;;14.17;9.03;;;21.00;78.00;;;;;;5012816;28;20267;-92
2022/06/05 02:35:42;;;;;;;17.33;10.30;;;20.90;79.10;;;;;;5012011;28;20213;-93
2022/06/05 02:38:23;;;;;;;16.03;9.53;;;20.90;79.00;;;;;;5010364;28;20193;-93
2022/06/05 02:41:03;;;;;;;18.93;10.40;;;20.90;78.70;;;;;;5011966;28;20205;-93
2022/06/05 02:43:39;;;;;;;14.07;7.93;;;20.80;78.80;;;;;;5012786;28;20205;-92
2022/06/05 02:46:12;;;;;;;14.20;9.03;;;20.80;78.90;;;;;;5012873;28;20223;-92
2022/06/05 02:48:47;;;;;;;11.17;8.03;;;20.80;79.00;;;;;;5014795;28;20221;-93
2022/06/05 02:51:19;;;;;;;15.67;8.90;;;20.70;79.20;;;;;;5011445;28;20244;-95
2022/06/05 02:53:49;;;;;;;18.43;9.70;;;20.70;79.00;;;;;;4993987;28;20269;-94
2022/06/05 02:56:16;;;;;;;14.17;9.37;;;20.70;78.60;;;;;;4996506;28;20294;-94
2022/06/05 02:58:49;;;;;;;16.40;9.53;;;20.60;78.20;;;;;;5011509;28;20206;-92
2022/06/05 03:04:07;;;;;;;14.03;8.97;;;20.60;78.70;;;;;;5004500;28;20308;-93
2022/06/05 03:06:37;;;;;;;16.97;9.47;;;20.50;79.00;;;;;;5014741;28;20645;-93
2022/06/05 03:09:05;;;;;;;11.07;7.97;;;20.50;79.00;;;;;;5017119;28;20201;-94
2022/06/05 03:11:32;;;;;;;18.23;10.20;;;20.50;79.00;;;;;;5018403;28;20234;-92
2022/06/05 03:14:01;;;;;;;17.47;9.73;;;20.50;79.20;;;;;;5020841;28;20212;-92
2022/06/05 03:16:29;;;;;;;14.53;9.40;;;20.50;79.70;;;;;;5015471;28;20208;-93
2022/06/05 03:18:56;;;;;;;14.90;9.20;;;20.50;79.20;;;;;;5018732;28;20240;-91
2022/06/05 03:21:23;;;;;;;15.67;9.77;;;20.50;79.30;;;;;;5010315;28;20210;-93
2022/06/05 03:23:53;;;;;;;14.50;8.87;;;20.40;79.70;;;;;;4999533;28;20215;-93
2022/06/05 03:26:22;;;;;;;13.83;9.60;;;20.50;80.20;;;;;;5004366;28;20272;-92
2022/06/05 03:28:49;;;;;;;14.40;9.37;;;20.40;80.10;;;;;;5018372;28;20201;-93
2022/06/05 03:31:18;;;;;;;12.97;9.07;;;20.40;80.10;;;;;;5008651;28;20332;-93
2022/06/05 03:33:46;;;;;;;9.20;8.17;;;20.40;80.90;;;;;;4995093;28;20357;-93
2022/06/05 03:36:15;;;;;;;12.20;9.17;;;20.40;81.50;;;;;;5001603;28;20208;-93
2022/06/05 03:38:44;;;;;;;14.83;9.53;;;20.40;80.70;;;;;;5012477;28;20209;-92
2022/06/05 03:41:11;;;;;;;21.50;12.27;;;20.40;81.00;;;;;;5014169;28;20214;-93
2022/06/05 03:43:39;;;;;;;14.07;8.50;;;20.40;81.10;;;;;;5022730;28;20219;-92
2022/06/05 03:46:08;;;;;;;16.57;10.40;;;20.40;81.10;;;;;;5025927;23;20289;-93
2022/06/05 03:48:38;;;;;;;14.87;9.70;;;20.40;81.10;;;;;;5033413;28;20205;-93
2022/06/05 03:53:39;;;;;;;18.73;11.40;;;20.40;82.50;;;;;;5035088;23;20235;-93
2022/06/05 03:58:57;;;;;;;14.77;9.23;;;20.40;81.80;;;;;;4986455;23;20320;-94
2022/06/05 04:01:48;;;;;;;14.33;10.17;;;20.40;81.80;;;;;;4993935;28;20292;-94
2022/06/05 04:04:19;;;;;;;15.47;10.07;;;20.50;82.50;;;;;;5016389;23;20416;-93
2022/06/05 04:09:38;;;;;;;21.33;11.17;;;20.50;82.20;;;;;;5079805;23;20331;-93
2022/06/05 04:12:05;;;;;;;17.77;10.97;;;20.50;81.90;;;;;;5033867;28;20193;-94
2022/06/05 04:14:33;;;;;;;16.70;11.33;;;20.50;82.20;;;;;;5053565;28;20333;-94
2022/06/05 04:17:04;;;;;;;12.23;9.30;;;20.50;82.20;;;;;;5036044;28;20611;-94
2022/06/05 04:19:35;;;;;;;10.10;9.00;;;20.50;82.90;;;;;;5014423;28;20300;-94
2022/06/05 04:22:04;;;;;;;17.70;10.97;;;20.50;82.90;;;;;;5013334;28;20582;-94
2022/06/05 04:24:33;;;;;;;15.10;10.13;;;20.50;82.70;;;;;;5012969;28;20205;-94
2022/06/05 04:27:00;;;;;;;14.93;10.60;;;20.50;82.80;;;;;;5014802;28;20201;-94
2022/06/05 04:29:27;;;;;;;10.97;8.70;;;20.50;82.30;;;;;;5014267;28;20209;-94
2022/06/05 04:31:55;;;;;;;14.70;9.83;;;20.50;82.70;;;;;;5014361;28;20310;-94
2022/06/05 04:34:24;;;;;;;15.80;9.90;;;20.50;83.00;;;;;;5012667;28;20229;-94
2022/06/05 04:36:53;;;;;;;15.93;10.43;;;20.50;83.00;;;;;;5011902;28;20240;-94
2022/06/05 04:42:03;;;;;;;12.13;9.03;;;20.60;83.60;;;;;;5006926;28;20213;-94
2022/06/05 04:44:33;;;;;;;14.13;9.63;;;20.60;83.50;;;;;;5013682;28;20220;-94
2022/06/05 04:47:00;;;;;;;14.53;10.63;;;20.60;83.80;;;;;;5014324;28;20307;-93
2022/06/05 04:49:35;;;;;;;13.30;9.77;;;20.60;83.00;;;;;;5032450;28;20558;-93
2022/06/05 04:52:05;;;;;;;18.73;10.80;;;20.60;83.80;;;;;;5028729;28;22118;-94
2022/06/05 04:54:32;;;;;;;12.67;8.97;;;20.60;83.80;;;;;;5012800;28;20198;-93
2022/06/05 04:57:09;;;;;;;12.90;10.03;;;20.60;83.10;;;;;;5020968;28;20273;-93
2022/06/05 05:02:31;;;;;;;13.60;9.27;;;20.70;84.00;;;;;;5006557;28;20563;-93
2022/06/05 05:04:58;;;;;;;17.57;9.70;;;20.70;83.10;;;;;;5010243;28;20613;-92
2022/06/05 05:07:27;;;;;;;16.83;10.33;;;20.70;83.00;;;;;;5011807;28;20248;-94
2022/06/05 05:09:54;;;;;;;14.87;9.37;;;20.70;83.40;;;;;;5031382;28;20211;-92
2022/06/05 05:12:22;;;;;;;13.47;9.67;;;20.70;83.20;;;;;;5033061;28;20233;-94
2022/06/05 05:14:50;;;;;;;13.53;9.80;;;20.70;83.40;;;;;;5013255;28;20217;-93
2022/06/05 05:17:19;;;;;;;13.27;9.47;;;20.80;84.10;;;;;;5028470;28;20208;-93
2022/06/05 05:19:48;;;;;;;20.90;12.30;;;20.80;84.40;;;;;;5014514;28;20704;-93
2022/06/05 05:22:16;;;;;;;14.37;10.10;;;20.80;84.40;;;;;;5018408;28;20266;-94
2022/06/05 05:24:47;;;;;;;15.50;9.90;;;20.80;84.20;;;;;;5032519;28;20287;-93
2022/06/05 05:27:14;;;;;;;18.70;10.87;;;20.80;84.40;;;;;;5020397;28;20650;-93
2022/06/05 05:29:42;;;;;;;20.03;10.93;;;20.80;83.80;;;;;;5012185;28;20264;-93
2022/06/05 05:32:11;;;;;;;15.53;10.03;;;20.90;84.00;;;;;;5008351;28;20225;-93
2022/06/05 05:34:40;;;;;;;12.57;9.23;;;20.90;83.90;;;;;;5015425;28;20201;-93
2022/06/05 05:37:07;;;;;;;16.93;10.23;;;20.80;83.70;;;;;;5020331;28;20210;-92
2022/06/05 05:42:25;;;;;;;19.10;11.03;;;20.90;84.00;;;;;;5022996;28;20648;-94
2022/06/05 05:44:53;;;;;;;13.43;9.40;;;20.90;83.80;;;;;;5013693;28;20201;-94
2022/06/05 05:47:23;;;;;;;16.03;9.87;;;20.90;83.80;;;;;;5017994;23;20229;-93
2022/06/05 05:49:59;;;;;;;22.53;12.00;;;20.90;84.00;;;;;;5006972;28;20202;-93
2022/06/05 05:52:28;;;;;;;16.70;11.23;;;20.90;84.70;;;;;;5008822;28;20245;-92
2022/06/05 05:54:56;;;;;;;21.13;11.77;;;20.90;84.50;;;;;;5003489;28;20237;-90
2022/06/05 05:57:24;;;;;;;18.27;10.97;;;20.90;84.30;;;;;;5012283;28;20198;-91
2022/06/05 05:59:51;;;;;;;16.40;10.27;;;20.80;84.30;;;;;;5015830;28;20206;-90
2022/06/05 06:02:25;;;;;;;22.87;12.33;;;20.90;84.40;;;;;;5005938;28;20193;-89
2022/06/05 06:04:53;;;;;;;23.27;13.43;;;20.90;85.10;;;;;;5015818;28;20207;-91
2022/06/05 06:07:23;;;;;;;24.40;13.13;;;20.90;84.90;;;;;;5008296;28;20220;-90
2022/06/05 06:09:51;;;;;;;15.67;10.60;;;20.80;85.00;;;;;;5012307;28;20319;-91
2022/06/05 06:12:19;;;;;;;17.80;11.23;;;20.80;85.10;;;;;;5013158;28;20229;-92
2022/06/05 06:14:48;;;;;;;17.27;10.67;;;20.80;85.20;;;;;;5012286;28;20651;-92
2022/06/05 06:17:16;;;;;;;13.17;10.53;;;20.80;85.50;;;;;;5014528;28;20205;-93
2022/06/05 06:19:44;;;;;;;14.70;9.90;;;20.90;85.70;;;;;;5014473;28;20286;-93
2022/06/05 06:22:17;;;;;;;17.00;10.90;;;20.80;85.80;;;;;;5016390;28;20218;-92
2022/06/05 06:24:48;;;;;;;16.33;11.27;;;20.80;86.50;;;;;;5014468;28;20210;-94
2022/06/05 06:27:17;;;;;;;12.20;10.00;;;20.80;86.00;;;;;;5013256;28;20701;-94
2022/06/05 06:29:44;;;;;;;16.33;11.67;;;20.80;86.10;;;;;;5014983;28;20206;-93
2022/06/05 06:32:14;;;;;;;17.97;10.67;;;20.80;85.80;;;;;;5009201;28;20241;-94
2022/06/05 06:34:41;;;;;;;18.07;10.90;;;20.80;86.70;;;;;;5011075;28;20286;-93
2022/06/05 06:37:09;;;;;;;14.70;9.77;;;20.80;85.80;;;;;;5013145;28;20273;-93
2022/06/05 06:39:36;;;;;;;16.67;10.73;;;20.80;86.00;;;;;;5007113;28;20296;-93
2022/06/05 06:42:06;;;;;;;14.83;9.47;;;20.80;86.00;;;;;;4995619;28;20242;-94
2022/06/05 06:44:36;;;;;;;17.50;11.03;;;20.80;86.90;;;;;;5011523;28;20300;-92
2022/06/05 06:47:03;;;;;;;14.97;9.70;;;20.80;87.20;;;;;;5012863;28;20213;-93
2022/06/05 06:49:49;;;;;;;16.30;10.77;;;20.80;86.90;;;;;;5014170;28;20240;-93
2022/06/05 06:52:17;;;;;;;15.77;10.40;;;20.80;88.80;;;;;;5012304;28;20233;-93
2022/06/05 06:54:48;;;;;;;15.33;10.30;;;20.80;87.50;;;;;;4999608;28;20202;-94
2022/06/05 06:57:17;;;;;;;17.97;11.67;;;20.80;88.30;;;;;;5001522;28;20208;-95
2022/06/05 06:59:45;;;;;;;15.03;10.53;;;20.80;88.20;;;;;;5012937;28;20237;-94
2022/06/05 07:02:13;;;;;;;15.90;11.17;;;20.80;88.20;;;;;;5013296;28;20262;-94
2022/06/05 07:04:48;;;;;;;16.43;11.30;;;20.80;88.20;;;;;;5014380;28;20210;-94
2022/06/05 07:07:15;;;;;;;24.43;13.27;;;20.80;89.10;;;;;;5012686;28;20205;-92
2022/06/05 07:09:42;;;;;;;19.67;11.57;;;20.80;88.20;;;;;;5005232;28;20289;-94
2022/06/05 07:12:10;;;;;;;16.83;11.40;;;20.80;88.50;;;;;;5013820;28;20296;-94
2022/06/05 07:14:37;;;;;;;20.27;12.67;;;20.80;88.80;;;;;;5009011;28;20213;-93
2022/06/05 07:17:05;;;;;;;14.57;10.70;;;20.80;88.70;;;;;;5014230;28;20213;-95
2022/06/05 07:19:33;;;;;;;18.93;12.03;;;20.80;89.00;;;;;;5013814;28;20205;-93
2022/06/05 07:22:08;;;;;;;20.07;12.20;;;20.80;89.40;;;;;;5014018;28;20590;-92
2022/06/05 07:24:35;;;;;;;16.87;11.70;;;20.80;90.00;;;;;;5015555;28;20204;-93
2022/06/05 07:27:07;;;;;;;20.73;12.43;;;20.80;89.00;;;;;;5011705;28;20669;-93
2022/06/05 07:29:35;;;;;;;15.30;10.47;;;20.70;89.30;;;;;;5004840;28;20665;-94
2022/06/05 07:32:04;;;;;;;16.50;11.03;;;20.70;89.60;;;;;;5001366;28;20232;-93
2022/06/05 07:34:33;;;;;;;17.27;11.73;;;20.70;89.80;;;;;;5009253;28;20197;-93
2022/06/05 07:37:03;;;;;;;16.93;11.67;;;20.70;89.90;;;;;;5001509;28;20205;-94
2022/06/05 07:39:31;;;;;;;12.23;10.30;;;20.70;90.10;;;;;;5005195;28;20198;-94
2022/06/05 07:41:59;;;;;;;16.57;11.30;;;20.70;89.30;;;;;;4993811;28;20206;-93
2022/06/05 07:44:27;;;;;;;16.33;11.17;;;20.70;89.70;;;;;;5001374;28;20267;-91
2022/06/05 07:46:54;;;;;;;15.70;10.73;;;20.80;90.20;;;;;;5019662;28;20529;-93
2022/06/05 07:49:22;;;;;;;18.97;11.67;;;20.80;89.90;;;;;;5013189;28;20282;-93
2022/06/05 07:54:37;;;;;;;17.03;11.00;;;20.70;89.80;;;;;;5006889;28;20207;-91
2022/06/05 07:57:08;;;;;;;14.67;10.67;;;20.80;90.10;;;;;;4993635;28;20210;-94
2022/06/05 07:59:39;;;;;;;19.90;12.30;;;20.80;90.40;;;;;;4998067;28;20207;-93
2022/06/05 08:02:09;;;;;;;18.27;10.90;;;20.80;90.50;;;;;;5012796;28;20201;-94
2022/06/05 08:04:37;;;;;;;14.73;10.63;;;20.80;90.40;;;;;;4992684;28;20201;-92
2022/06/05 08:07:07;;;;;;;15.47;11.33;;;20.80;90.60;;;;;;5005978;28;20202;-93
2022/06/05 08:09:42;;;;;;;16.50;10.87;;;20.80;90.60;;;;;;5012196;28;20205;-94
2022/06/05 08:12:12;;;;;;;17.47;10.20;;;20.80;90.60;;;;;;5013964;28;20225;-93
2022/06/05 08:14:41;;;;;;;18.27;11.97;;;20.80;90.20;;;;;;5003728;28;20228;-94
2022/06/05 08:17:12;;;;;;;16.60;10.60;;;20.80;90.40;;;;;;5011643;28;20217;-93
2022/06/05 08:19:41;;;;;;;15.37;10.27;;;20.80;90.60;;;;;;5013233;28;20209;-93
2022/06/05 08:22:22;;;;;;;15.20;10.70;;;20.80;91.00;;;;;;5011346;28;20684;-93
2022/06/05 08:24:52;;;;;;;14.17;10.37;;;20.80;91.20;;;;;;5001735;28;20205;-92
2022/06/05 08:27:23;;;;;;;18.40;11.23;;;20.80;90.90;;;;;;5008730;28;20213;-93
2022/06/05 08:29:55;;;;;;;13.37;9.53;;;20.80;90.90;;;;;;5012379;28;20672;-93
2022/06/05 08:32:26;;;;;;;19.23;11.13;;;20.90;91.10;;;;;;5011725;28;20264;-93
2022/06/05 08:34:54;;;;;;;13.23;9.30;;;20.90;91.00;;;;;;5009388;28;20239;-92
2022/06/05 08:43:36;;;;;;;13.13;8.97;;;20.90;91.60;;;;;;5279948;23;20251;-93
2022/06/05 08:46:12;;;;;;;15.23;9.73;;;21.00;91.90;;;;;;5006892;28;20253;-94
2022/06/05 08:48:45;;;;;;;13.53;9.33;;;21.00;91.60;;;;;;5010857;28;20202;-94
2022/06/05 08:51:30;;;;;;;13.93;9.80;;;21.00;91.80;;;;;;5023329;28;20260;-94
2022/06/05 08:54:04;;;;;;;15.13;9.33;;;21.00;91.90;;;;;;4994568;28;20202;-94
2022/06/05 08:56:48;;;;;;;19.73;10.83;;;21.00;91.60;;;;;;5007286;28;20208;-94
2022/06/05 08:59:22;;;;;;;15.20;8.87;;;21.10;92.20;;;;;;5005835;28;20209;-94
2022/06/05 09:04:43;;;;;;;15.97;9.77;;;21.10;92.00;;;;;;5018076;23;21019;-94
2022/06/05 09:10:08;;;;;;;9.27;6.80;;;21.20;92.20;;;;;;5008879;28;20281;-94
2022/06/05 09:12:50;;;;;;;14.07;8.07;;;21.20;92.00;;;;;;5012855;28;20218;-93
2022/06/05 09:15:25;;;;;;;11.23;7.20;;;21.20;92.20;;;;;;5012456;28;20641;-93
2022/06/05 09:17:56;;;;;;;11.23;7.50;;;21.20;92.00;;;;;;5011721;28;20205;-94
2022/06/05 09:20:49;;;;;;;13.47;7.67;;;21.30;92.20;;;;;;5011906;28;20209;-94
2022/06/05 09:23:28;;;;;;;14.63;8.13;;;21.30;92.60;;;;;;5011880;28;20293;-94
2022/06/05 09:26:08;;;;;;;13.47;8.33;;;21.30;92.40;;;;;;5009787;28;20203;-93
2022/06/05 09:29:07;;;;;;;18.63;9.20;;;21.40;92.50;;;;;;5005894;28;20197;-94
2022/06/05 09:34:59;;;;;;;10.67;7.63;;;21.40;92.70;;;;;;5007235;28;20205;-94
2022/06/05 09:37:29;;;;;;;14.23;9.07;;;21.40;92.30;;;;;;5014732;28;20205;-93
2022/06/05 09:40:01;;;;;;;14.47;9.50;;;21.50;92.50;;;;;;5021411;28;20232;-92
2022/06/05 09:42:49;;;;;;;10.33;8.20;;;21.50;92.30;;;;;;5005077;28;20268;-92
2022/06/05 09:45:41;;;;;;;11.53;7.60;;;21.50;92.50;;;;;;5009836;28;20313;-93
2022/06/05 09:48:22;;;;;;;16.27;9.37;;;21.50;92.10;;;;;;5013735;28;20213;-94
2022/06/05 09:50:51;;;;;;;10.20;7.47;;;21.50;91.40;;;;;;4997072;28;20210;-94
2022/06/05 09:53:24;;;;;;;15.13;9.23;;;21.50;91.10;;;;;;5011394;28;20237;-94
2022/06/05 09:56:04;;;;;;;22.07;10.97;;;21.50;91.80;;;;;;5011657;28;20205;-93
2022/06/05 09:58:47;;;;;;;12.10;8.00;;;21.50;92.20;;;;;;5015717;28;20248;-94
2022/06/05 10:01:26;;;;;;;12.30;8.10;;;21.50;92.60;;;;;;4997680;28;20748;-95
2022/06/05 10:03:54;;;;;;;10.33;7.00;;;21.50;92.60;;;;;;5005423;28;20309;-93
2022/06/05 10:06:27;;;;;;;15.60;8.37;;;21.50;92.10;;;;;;5007756;28;20265;-94
2022/06/05 10:09:03;;;;;;;18.33;9.67;;;21.60;92.30;;;;;;5009611;28;20201;-93
2022/06/05 10:11:40;;;;;;;15.97;8.63;;;21.60;92.50;;;;;;5004626;28;20605;-93
2022/06/05 10:14:55;;;;;;;14.27;8.20;;;21.60;92.90;;;;;;5007543;28;20209;-93
2022/06/05 10:17:49;;;;;;;11.40;7.13;;;21.60;93.10;;;;;;5026712;28;20210;-93
2022/06/05 10:20:46;;;;;;;14.50;8.17;;;21.60;93.10;;;;;;5009960;28;20211;-93
2022/06/05 10:23:35;;;;;;;11.33;7.50;;;21.70;93.40;;;;;;5014043;28;20214;-96
2022/06/05 10:26:17;;;;;;;12.20;7.77;;;21.70;93.00;;;;;;5014912;28;20206;-93
2022/06/05 10:28:47;;;;;;;12.80;8.10;;;21.70;92.50;;;;;;5009815;28;20200;-93
2022/06/05 10:31:30;;;;;;;15.97;8.80;;;21.70;92.00;;;;;;5017452;28;20565;-94
2022/06/05 10:34:12;;;;;;;12.10;7.67;;;21.80;92.30;;;;;;5007595;28;20242;-93
2022/06/05 10:37:22;;;;;;;9.93;7.13;;;21.80;92.10;;;;;;5007013;28;20371;-93
2022/06/05 10:40:05;;;;;;;12.20;7.00;;;21.90;92.00;;;;;;5014562;28;20213;-94
2022/06/05 10:42:45;;;;;;;6.33;5.70;;;21.90;92.00;;;;;;5011148;28;20202;-93
2022/06/05 10:45:40;;;;;;;8.20;6.27;;;21.90;91.70;;;;;;5005649;28;20225;-94
2022/06/05 10:48:25;;;;;;;11.17;7.67;;;21.90;91.70;;;;;;5005305;28;20301;-94
2022/06/05 10:51:02;;;;;;;16.87;9.83;;;21.90;91.40;;;;;;5038170;23;20251;-93
2022/06/05 10:53:38;;;;;;;18.77;10.50;;;22.00;91.70;;;;;;5031114;28;20337;-93
2022/06/05 10:56:19;;;;;;;15.20;8.67;;;22.00;92.00;;;;;;5029675;28;20238;-92
2022/06/05 10:58:54;;;;;;;14.20;8.80;;;22.00;92.70;;;;;;5026881;28;20209;-93
2022/06/05 11:01:49;;;;;;;19.43;10.23;;;22.00;93.00;;;;;;5032645;28;20205;-93
2022/06/05 11:04:29;;;;;;;15.33;8.33;;;22.00;93.20;;;;;;5025174;28;20244;-93
2022/06/05 11:07:03;;;;;;;13.87;7.87;;;22.10;93.10;;;;;;5045626;28;20209;-93
2022/06/05 11:09:43;;;;;;;8.77;6.17;;;22.10;93.20;;;;;;5035809;28;20267;-93
2022/06/05 11:18:21;;;;;;;15.03;7.33;;;22.20;92.80;;;;;;5004094;23;20391;-93
2022/06/05 11:21:01;;;;;;;14.97;8.07;;;22.20;92.60;;;;;;4999030;28;20210;-93
2022/06/05 11:23:35;;;;;;;11.50;6.87;;;22.30;92.60;;;;;;5001477;28;20297;-94
2022/06/05 11:26:12;;;;;;;16.43;8.13;;;22.30;92.70;;;;;;4994039;28;20217;-93
2022/06/05 11:28:54;;;;;;;10.47;6.60;;;22.30;92.60;;;;;;4994293;28;20203;-94
2022/06/05 11:31:40;;;;;;;10.77;6.20;;;22.30;92.80;;;;;;4994600;28;20249;-94
2022/06/05 11:34:37;;;;;;;11.73;7.13;;;22.30;92.90;;;;;;4993367;28;20323;-93
2022/06/05 11:37:40;;;;;;;11.67;7.30;;;22.30;93.20;;;;;;4992307;28;20212;-92
2022/06/05 11:40:21;;;;;;;20.27;12.33;;;22.40;93.10;;;;;;4984127;28;20209;-93
2022/06/05 11:43:04;;;;;;;18.20;14.97;;;22.30;92.90;;;;;;4992070;28;20204;-92
2022/06/05 11:45:52;;;;;;;23.77;17.90;;;22.40;92.70;;;;;;4992385;28;20262;-91
2022/06/05 11:48:27;;;;;;;22.10;18.67;;;22.40;92.80;;;;;;4991789;28;20238;-93
2022/06/05 11:51:05;;;;;;;23.33;18.73;;;22.30;92.50;;;;;;4990814;28;20294;-91
2022/06/05 11:53:42;;;;;;;25.13;18.70;;;22.40;92.60;;;;;;4990386;28;20804;-92
2022/06/05 11:56:39;;;;;;;30.47;20.77;;;22.40;92.70;;;;;;4990482;28;20665;-93
2022/06/05 11:59:19;;;;;;;27.23;19.47;;;22.40;92.80;;;;;;4976436;28;20258;-92
2022/06/05 12:01:51;;;;;;;22.63;18.00;;;22.40;92.90;;;;;;4994490;28;20209;-92
2022/06/05 12:04:27;;;;;;;26.57;19.27;;;22.40;92.70;;;;;;4992374;28;20272;-94
2022/06/05 12:06:58;;;;;;;23.20;18.20;;;22.40;93.00;;;;;;4991776;28;20233;-94
2022/06/05 12:09:28;;;;;;;25.27;18.47;;;22.40;93.00;;;;;;4988882;28;20208;-94
2022/06/05 12:12:04;;;;;;;22.00;17.90;;;22.40;93.00;;;;;;4988070;28;20562;-93
2022/06/05 12:14:34;;;;;;;29.87;19.27;;;22.40;93.40;;;;;;4986917;28;20614;-93
2022/06/05 12:17:12;;;;;;;26.03;18.33;;;22.50;93.50;;;;;;4991089;28;20213;-90
2022/06/05 12:19:53;;;;;;;20.43;15.83;;;22.50;93.70;;;;;;4991746;28;20670;-93
2022/06/05 12:22:27;;;;;;;21.90;15.77;;;22.50;93.50;;;;;;4992277;28;20216;-93
2022/06/05 12:25:01;;;;;;;17.53;14.77;;;22.50;93.40;;;;;;4990931;28;20202;-93
2022/06/05 12:27:44;;;;;;;20.47;15.63;;;22.50;93.50;;;;;;5000467;28;20554;-95
2022/06/05 12:30:21;;;;;;;21.10;16.10;;;22.50;93.50;;;;;;5000228;28;20231;-93
2022/06/05 12:32:59;;;;;;;20.00;15.87;;;22.60;93.80;;;;;;5012321;28;20225;-92
2022/06/05 12:35:32;;;;;;;24.87;16.37;;;22.60;93.70;;;;;;5000495;28;20683;-94
2022/06/05 12:38:21;;;;;;;15.73;12.97;;;22.60;93.50;;;;;;4985680;28;20194;-93
2022/06/05 12:41:01;;;;;;;15.10;13.27;;;22.70;94.10;;;;;;4998947;28;20611;-92
2022/06/05 12:43:42;;;;;;;19.17;14.43;;;22.70;94.20;;;;;;4997322;28;20230;-93
2022/06/05 12:46:18;;;;;;;19.27;13.57;;;22.70;94.10;;;;;;4993000;28;20217;-93
2022/06/05 12:48:46;;;;;;;13.03;10.53;;;22.80;94.20;;;;;;4991852;28;20213;-93
2022/06/05 12:51:19;;;;;;;12.87;9.93;;;22.80;93.60;;;;;;4994283;28;20208;-92
2022/06/05 12:53:53;;;;;;;12.37;10.27;;;22.90;94.30;;;;;;4997408;28;20244;-93
2022/06/05 12:56:31;;;;;;;12.73;9.07;;;22.90;93.90;;;;;;4996136;28;20620;-93
2022/06/05 12:59:14;;;;;;;10.97;8.30;;;22.90;93.10;;;;;;4971654;28;20236;-93
2022/06/05 13:01:49;;;;;;;10.47;7.97;;;23.00;92.80;;;;;;4979165;28;20292;-91
2022/06/05 13:04:28;;;;;;;16.50;9.47;;;23.10;93.20;;;;;;4988518;28;20205;-92
2022/06/05 13:07:05;;;;;;;12.13;7.67;;;23.10;93.40;;;;;;4989822;28;20201;-92
2022/06/05 13:09:41;;;;;;;15.50;8.73;;;23.20;93.00;;;;;;4989766;28;20212;-93
2022/06/05 13:12:14;;;;;;;9.83;6.27;;;23.20;93.20;;;;;;4978394;28;20206;-93
2022/06/05 13:14:50;;;;;;;11.97;7.43;;;23.30;92.50;;;;;;4990815;28;20222;-92
2022/06/05 13:17:31;;;;;;;15.73;9.50;;;23.30;92.10;;;;;;4985791;28;20295;-93
2022/06/05 13:20:13;;;;;;;12.57;8.47;;;23.40;92.00;;;;;;4991863;28;20573;-94
2022/06/05 13:22:48;;;;;;;11.80;8.57;;;23.50;91.90;;;;;;4989783;28;20256;-93
2022/06/05 13:25:26;;;;;;;12.97;8.57;;;23.50;91.90;;;;;;4990867;28;20201;-93
2022/06/05 13:28:03;;;;;;;12.83;8.73;;;23.50;91.40;;;;;;4986790;28;20209;-93
2022/06/05 13:30:42;;;;;;;12.67;9.20;;;23.60;91.30;;;;;;4990481;28;20300;-91
2022/06/05 13:33:16;;;;;;;12.53;9.33;;;23.60;91.10;;;;;;4987892;28;20315;-91
2022/06/05 13:35:46;;;;;;;16.23;10.23;;;23.70;91.20;;;;;;4988353;28;20206;-92
2022/06/05 13:38:20;;;;;;;15.60;9.40;;;23.70;90.80;;;;;;4990837;28;20233;-91
2022/06/05 13:40:56;;;;;;;12.20;9.20;;;23.70;91.40;;;;;;4999793;28;20226;-92
2022/06/05 13:43:27;;;;;;;13.53;9.97;;;23.70;91.40;;;;;;4970657;28;20773;-92
2022/06/05 13:46:15;;;;;;;11.53;8.87;;;23.80;92.10;;;;;;4988941;28;20639;-93
2022/06/05 13:48:48;;;;;;;10.13;8.13;;;23.80;91.40;;;;;;4991767;28;20236;-92